sensor_id;sensor_type;location;lat;lon;timestamp;pressure;altitude;pressure_sealevel;temperature;humidity
71638;BME280;59485;43.542;-5.676;2023-06-22T00:02:13;101762.22;;;18.95;100.00
71638;BME280;59485;43.542;-5.676;2023-06-22T00:04:39;101754.75;;;18.96;100.00
71638;BME280;59485;43.542;-5.676;2023-06-22T00:07:05;101740.06;;;18.82;100.00
71638;BME280;59485;43.542;-5.676;2023-06-22T00:09:31;101775.66;;;19.05;100.00
71638;BME280;59485;43.542;-5.676;2023-06-22T00:11:56;101769.50;;;18.96;100.00
71638;BME280;59485;43.542;-5.676;2023-06-22T00:14:22;101764.75;;;18.97;100.00
71638;BME280;59485;43.542;-5.676;2023-06-22T00:16:48;101740.69;;;18.84;100.00
71638;BME280;59485;43.542;-5.676;2023-06-22T00:19:15;101764.38;;;18.93;100.00
71638;BME280;59485;43.542;-5.676;2023-06-22T00:21:41;101779.50;;;19.04;100.00
71638;BME280;59485;43.542;-5.676;2023-06-22T00:24:07;101780.09;;;19.06;100.00
71638;BME280;59485;43.542;-5.676;2023-06-22T00:26:33;101768.59;;;19.02;100.00
71638;BME280;59485;43.542;-5.676;2023-06-22T00:28:58;101761.34;;;19.01;100.00
71638;BME280;59485;43.542;-5.676;2023-06-22T00:31:24;101775.19;;;19.15;100.00
71638;BME280;59485;43.542;-5.676;2023-06-22T00:33:49;101761.97;;;19.03;100.00
71638;BME280;59485;43.542;-5.676;2023-06-22T00:36:16;101760.53;;;18.94;100.00
71638;BME280;59485;43.542;-5.676;2023-06-22T00:38:43;101772.28;;;18.96;100.00
71638;BME280;59485;43.542;-5.676;2023-06-22T00:41:09;101782.72;;;19.01;100.00
71638;BME280;59485;43.542;-5.676;2023-06-22T00:43:34;101766.50;;;18.91;100.00
71638;BME280;59485;43.542;-5.676;2023-06-22T00:46:00;101787.00;;;19.03;100.00
71638;BME280;59485;43.542;-5.676;2023-06-22T00:48:25;101771.22;;;18.91;100.00
71638;BME280;59485;43.542;-5.676;2023-06-22T00:50:51;101787.00;;;19.03;100.00
71638;BME280;59485;43.542;-5.676;2023-06-22T00:53:19;101784.84;;;19.05;100.00
71638;BME280;59485;43.542;-5.676;2023-06-22T00:55:45;101765.44;;;18.92;100.00
71638;BME280;59485;43.542;-5.676;2023-06-22T00:58:17;101770.31;;;18.97;100.00
71638;BME280;59485;43.542;-5.676;2023-06-22T01:00:47;101784.63;;;19.00;100.00
71638;BME280;59485;43.542;-5.676;2023-06-22T01:03:13;101787.19;;;19.02;100.00
71638;BME280;59485;43.542;-5.676;2023-06-22T01:05:39;101797.22;;;19.09;100.00
71638;BME280;59485;43.542;-5.676;2023-06-22T01:08:31;101798.75;;;19.05;100.00
71638;BME280;59485;43.542;-5.676;2023-06-22T01:11:12;101778.44;;;18.98;100.00
71638;BME280;59485;43.542;-5.676;2023-06-22T01:14:24;101790.84;;;19.02;100.00
71638;BME280;59485;43.542;-5.676;2023-06-22T01:16:54;101772.50;;;18.88;100.00
71638;BME280;59485;43.542;-5.676;2023-06-22T01:19:50;101789.13;;;19.01;100.00
71638;BME280;59485;43.542;-5.676;2023-06-22T01:22:18;101797.03;;;18.98;100.00
71638;BME280;59485;43.542;-5.676;2023-06-22T01:30:07;101802.81;;;19.03;100.00
71638;BME280;59485;43.542;-5.676;2023-06-22T01:32:36;101805.59;;;19.03;100.00
71638;BME280;59485;43.542;-5.676;2023-06-22T01:35:05;101794.25;;;18.98;100.00
71638;BME280;59485;43.542;-5.676;2023-06-22T01:37:33;101801.09;;;19.02;100.00
71638;BME280;59485;43.542;-5.676;2023-06-22T01:40:01;101820.50;;;19.08;100.00
71638;BME280;59485;43.542;-5.676;2023-06-22T01:42:27;101810.88;;;19.11;100.00
71638;BME280;59485;43.542;-5.676;2023-06-22T01:44:53;101823.06;;;19.10;100.00
71638;BME280;59485;43.542;-5.676;2023-06-22T01:47:20;101822.44;;;19.15;100.00
71638;BME280;59485;43.542;-5.676;2023-06-22T01:49:47;101812.59;;;19.12;100.00
71638;BME280;59485;43.542;-5.676;2023-06-22T01:52:13;101810.69;;;19.13;100.00
71638;BME280;59485;43.542;-5.676;2023-06-22T01:54:39;101813.44;;;19.13;100.00
71638;BME280;59485;43.542;-5.676;2023-06-22T01:57:06;101805.34;;;19.11;100.00
71638;BME280;59485;43.542;-5.676;2023-06-22T01:59:39;101816.88;;;19.15;100.00
71638;BME280;59485;43.542;-5.676;2023-06-22T02:02:10;101816.63;;;19.16;100.00
71638;BME280;59485;43.542;-5.676;2023-06-22T02:04:51;101815.16;;;19.14;100.00
71638;BME280;59485;43.542;-5.676;2023-06-22T02:07:20;101815.16;;;19.14;100.00
71638;BME280;59485;43.542;-5.676;2023-06-22T02:09:51;101829.06;;;19.14;100.00
71638;BME280;59485;43.542;-5.676;2023-06-22T02:12:25;101833.13;;;19.11;100.00
71638;BME280;59485;43.542;-5.676;2023-06-22T02:14:53;101833.97;;;19.11;100.00
71638;BME280;59485;43.542;-5.676;2023-06-22T02:17:19;101832.69;;;19.07;100.00
71638;BME280;59485;43.542;-5.676;2023-06-22T02:19:45;101826.53;;;18.99;100.00
71638;BME280;59485;43.542;-5.676;2023-06-22T02:22:11;101834.03;;;19.05;100.00
71638;BME280;59485;43.542;-5.676;2023-06-22T02:24:38;101835.06;;;19.10;100.00
71638;BME280;59485;43.542;-5.676;2023-06-22T02:27:03;101837.66;;;19.05;100.00
71638;BME280;59485;43.542;-5.676;2023-06-22T02:29:31;101840.19;;;19.07;100.00
71638;BME280;59485;43.542;-5.676;2023-06-22T02:31:56;101844.28;;;19.04;100.00
71638;BME280;59485;43.542;-5.676;2023-06-22T02:34:22;101848.53;;;19.07;100.00
71638;BME280;59485;43.542;-5.676;2023-06-22T02:36:48;101852.38;;;19.06;100.00
71638;BME280;59485;43.542;-5.676;2023-06-22T02:39:21;101851.56;;;18.99;100.00
71638;BME280;59485;43.542;-5.676;2023-06-22T02:41:51;101854.97;;;19.01;100.00
71638;BME280;59485;43.542;-5.676;2023-06-22T02:44:18;101840.06;;;18.82;100.00
71638;BME280;59485;43.542;-5.676;2023-06-22T02:46:44;101854.59;;;18.84;100.00
71638;BME280;59485;43.542;-5.676;2023-06-22T02:49:10;101847.78;;;18.87;100.00
71638;BME280;59485;43.542;-5.676;2023-06-22T02:51:41;101866.97;;;18.88;100.00
71638;BME280;59485;43.542;-5.676;2023-06-22T02:54:06;101852.72;;;18.71;100.00
71638;BME280;59485;43.542;-5.676;2023-06-22T02:56:32;101827.97;;;18.57;100.00
71638;BME280;59485;43.542;-5.676;2023-06-22T02:58:58;101839.91;;;18.64;100.00
71638;BME280;59485;43.542;-5.676;2023-06-22T03:01:27;101841.63;;;18.65;100.00
71638;BME280;59485;43.542;-5.676;2023-06-22T03:03:53;101836.75;;;18.60;100.00
71638;BME280;59485;43.542;-5.676;2023-06-22T03:06:20;101859.81;;;18.61;100.00
71638;BME280;59485;43.542;-5.676;2023-06-22T03:08:49;101846.53;;;18.43;100.00
71638;BME280;59485;43.542;-5.676;2023-06-22T03:11:15;101853.81;;;18.37;100.00
71638;BME280;59485;43.542;-5.676;2023-06-22T03:13:41;101871.31;;;18.45;100.00
71638;BME280;59485;43.542;-5.676;2023-06-22T03:16:06;101866.84;;;18.37;100.00
71638;BME280;59485;43.542;-5.676;2023-06-22T03:18:32;101859.38;;;18.31;100.00
71638;BME280;59485;43.542;-5.676;2023-06-22T03:20:57;101867.50;;;18.32;100.00
71638;BME280;59485;43.542;-5.676;2023-06-22T03:23:24;101874.34;;;18.30;100.00
71638;BME280;59485;43.542;-5.676;2023-06-22T03:25:49;101857.25;;;18.26;100.00
71638;BME280;59485;43.542;-5.676;2023-06-22T03:28:15;101866.88;;;18.24;100.00
71638;BME280;59485;43.542;-5.676;2023-06-22T03:30:40;101876.91;;;18.31;100.00
71638;BME280;59485;43.542;-5.676;2023-06-22T03:33:06;101866.22;;;18.22;100.00
71638;BME280;59485;43.542;-5.676;2023-06-22T03:35:31;101868.78;;;18.23;100.00
71638;BME280;59485;43.542;-5.676;2023-06-22T03:37:57;101872.41;;;18.24;100.00
71638;BME280;59485;43.542;-5.676;2023-06-22T03:40:22;101863.22;;;18.17;100.00
71638;BME280;59485;43.542;-5.676;2023-06-22T03:42:48;101888.00;;;18.25;100.00
71638;BME280;59485;43.542;-5.676;2023-06-22T03:45:14;101878.38;;;18.21;100.00
71638;BME280;59485;43.542;-5.676;2023-06-22T03:47:40;101871.78;;;18.15;100.00
71638;BME280;59485;43.542;-5.676;2023-06-22T03:50:06;101890.34;;;18.15;100.00
71638;BME280;59485;43.542;-5.676;2023-06-22T03:52:32;101877.97;;;18.04;100.00
71638;BME280;59485;43.542;-5.676;2023-06-22T03:54:57;101901.22;;;18.03;100.00
71638;BME280;59485;43.542;-5.676;2023-06-22T03:57:23;101897.34;;;17.91;100.00
71638;BME280;59485;43.542;-5.676;2023-06-22T03:59:49;101890.09;;;17.90;100.00
71638;BME280;59485;43.542;-5.676;2023-06-22T04:02:14;101906.13;;;18.01;100.00
71638;BME280;59485;43.542;-5.676;2023-06-22T04:04:40;101895.69;;;17.96;100.00
71638;BME280;59485;43.542;-5.676;2023-06-22T04:07:05;101908.28;;;18.06;100.00
71638;BME280;59485;43.542;-5.676;2023-06-22T04:09:31;101906.75;;;17.90;100.00
71638;BME280;59485;43.542;-5.676;2023-06-22T04:11:57;101915.97;;;17.97;100.00
71638;BME280;59485;43.542;-5.676;2023-06-22T04:14:22;101909.97;;;17.93;100.00
71638;BME280;59485;43.542;-5.676;2023-06-22T04:16:48;101910.16;;;17.79;100.00
71638;BME280;59485;43.542;-5.676;2023-06-22T04:19:13;101916.56;;;17.86;100.00
71638;BME280;59485;43.542;-5.676;2023-06-22T04:21:44;101925.97;;;17.91;100.00
71638;BME280;59485;43.542;-5.676;2023-06-22T04:24:11;101912.50;;;17.82;100.00
71638;BME280;59485;43.542;-5.676;2023-06-22T04:26:36;101925.09;;;17.84;100.00
71638;BME280;59485;43.542;-5.676;2023-06-22T04:29:05;101930.63;;;17.78;100.00
71638;BME280;59485;43.542;-5.676;2023-06-22T04:31:32;101938.31;;;17.76;100.00
71638;BME280;59485;43.542;-5.676;2023-06-22T04:34:02;101932.09;;;17.74;100.00
71638;BME280;59485;43.542;-5.676;2023-06-22T04:36:33;101925.50;;;17.81;100.00
71638;BME280;59485;43.542;-5.676;2023-06-22T04:39:07;101932.97;;;17.81;100.00
71638;BME280;59485;43.542;-5.676;2023-06-22T04:41:35;101949.22;;;17.90;100.00
71638;BME280;59485;43.542;-5.676;2023-06-22T04:44:25;101934.06;;;17.80;100.00
71638;BME280;59485;43.542;-5.676;2023-06-22T04:46:58;101935.53;;;17.76;100.00
71638;BME280;59485;43.542;-5.676;2023-06-22T04:49:29;101949.19;;;17.84;100.00
71638;BME280;59485;43.542;-5.676;2023-06-22T04:52:11;101953.69;;;17.85;100.00
71638;BME280;59485;43.542;-5.676;2023-06-22T04:54:38;101958.97;;;17.73;100.00
71638;BME280;59485;43.542;-5.676;2023-06-22T04:57:06;101958.97;;;17.67;100.00
71638;BME280;59485;43.542;-5.676;2023-06-22T04:59:36;101953.88;;;17.77;100.00
71638;BME280;59485;43.542;-5.676;2023-06-22T05:02:05;101952.81;;;17.78;100.00
71638;BME280;59485;43.542;-5.676;2023-06-22T05:04:34;101921.16;;;17.59;100.00
71638;BME280;59485;43.542;-5.676;2023-06-22T05:07:04;101947.47;;;17.76;100.00
71638;BME280;59485;43.542;-5.676;2023-06-22T05:09:30;101942.59;;;17.78;100.00
71638;BME280;59485;43.542;-5.676;2023-06-22T05:11:57;101950.72;;;17.80;100.00
71638;BME280;59485;43.542;-5.676;2023-06-22T05:14:22;101944.69;;;17.70;100.00
71638;BME280;59485;43.542;-5.676;2023-06-22T05:16:48;101949.38;;;17.69;100.00
71638;BME280;59485;43.542;-5.676;2023-06-22T05:19:14;101960.09;;;17.79;100.00
71638;BME280;59485;43.542;-5.676;2023-06-22T05:21:39;101937.84;;;17.66;100.00
71638;BME280;59485;43.542;-5.676;2023-06-22T05:24:05;101927.97;;;17.56;100.00
71638;BME280;59485;43.542;-5.676;2023-06-22T05:26:32;101947.22;;;17.65;100.00
71638;BME280;59485;43.542;-5.676;2023-06-22T05:29:00;101963.47;;;17.81;100.00
71638;BME280;59485;43.542;-5.676;2023-06-22T05:31:26;101959.03;;;17.80;100.00
71638;BME280;59485;43.542;-5.676;2023-06-22T05:33:54;101970.34;;;17.85;100.00
71638;BME280;59485;43.542;-5.676;2023-06-22T05:36:20;101945.16;;;17.80;100.00
71638;BME280;59485;43.542;-5.676;2023-06-22T05:38:46;101980.19;;;17.94;100.00
71638;BME280;59485;43.542;-5.676;2023-06-22T05:41:12;101942.13;;;17.75;100.00
71638;BME280;59485;43.542;-5.676;2023-06-22T05:43:39;101951.97;;;17.77;100.00
71638;BME280;59485;43.542;-5.676;2023-06-22T05:46:04;101944.06;;;17.81;100.00
71638;BME280;59485;43.542;-5.676;2023-06-22T05:48:30;101961.63;;;18.01;100.00
71638;BME280;59485;43.542;-5.676;2023-06-22T05:50:56;101961.81;;;17.99;100.00
71638;BME280;59485;43.542;-5.676;2023-06-22T05:53:22;101955.22;;;17.94;100.00
71638;BME280;59485;43.542;-5.676;2023-06-22T05:55:47;101968.88;;;18.09;100.00
71638;BME280;59485;43.542;-5.676;2023-06-22T05:58:13;101943.69;;;17.97;100.00
71638;BME280;59485;43.542;-5.676;2023-06-22T06:00:39;101967.41;;;18.13;100.00
71638;BME280;59485;43.542;-5.676;2023-06-22T06:03:06;101971.91;;;18.20;100.00
71638;BME280;59485;43.542;-5.676;2023-06-22T06:05:33;101954.81;;;18.17;100.00
71638;BME280;59485;43.542;-5.676;2023-06-22T06:08:04;101962.50;;;18.21;100.00
71638;BME280;59485;43.542;-5.676;2023-06-22T06:10:50;101921.25;;;17.98;100.00
71638;BME280;59485;43.542;-5.676;2023-06-22T06:13:18;101975.97;;;18.31;100.00
71638;BME280;59485;43.542;-5.676;2023-06-22T06:15:43;101958.69;;;18.22;100.00
71638;BME280;59485;43.542;-5.676;2023-06-22T06:18:09;101978.09;;;18.29;100.00
71638;BME280;59485;43.542;-5.676;2023-06-22T06:20:34;101981.75;;;18.36;100.00
71638;BME280;59485;43.542;-5.676;2023-06-22T06:23:00;101974.25;;;18.43;100.00
71638;BME280;59485;43.542;-5.676;2023-06-22T06:25:27;101975.56;;;18.47;100.00
71638;BME280;59485;43.542;-5.676;2023-06-22T06:27:52;101970.44;;;18.51;100.00
71638;BME280;59485;43.542;-5.676;2023-06-22T06:30:20;101963.59;;;18.47;100.00
71638;BME280;59485;43.542;-5.676;2023-06-22T06:32:46;101951.63;;;18.46;100.00
71638;BME280;59485;43.542;-5.676;2023-06-22T06:35:13;101974.53;;;18.68;100.00
71638;BME280;59485;43.542;-5.676;2023-06-22T06:37:41;101970.47;;;18.64;100.00
71638;BME280;59485;43.542;-5.676;2023-06-22T06:40:08;101955.69;;;18.50;100.00
71638;BME280;59485;43.542;-5.676;2023-06-22T06:42:38;101981.34;;;18.65;100.00
71638;BME280;59485;43.542;-5.676;2023-06-22T06:45:06;101981.34;;;18.72;100.00
71638;BME280;59485;43.542;-5.676;2023-06-22T06:47:32;101978.16;;;18.75;100.00
71638;BME280;59485;43.542;-5.676;2023-06-22T06:49:58;101978.59;;;18.79;100.00
71638;BME280;59485;43.542;-5.676;2023-06-22T06:52:23;101982.84;;;18.81;100.00
71638;BME280;59485;43.542;-5.676;2023-06-22T06:54:49;101985.41;;;18.83;100.00
71638;BME280;59485;43.542;-5.676;2023-06-22T06:57:17;101974.28;;;18.83;100.00
71638;BME280;59485;43.542;-5.676;2023-06-22T06:59:42;101980.91;;;18.88;100.00
71638;BME280;59485;43.542;-5.676;2023-06-22T07:02:08;101978.13;;;18.88;100.00
71638;BME280;59485;43.542;-5.676;2023-06-22T07:04:33;101979.59;;;18.97;100.00
71638;BME280;59485;43.542;-5.676;2023-06-22T07:07:01;101989.22;;;19.15;100.00
71638;BME280;59485;43.542;-5.676;2023-06-22T07:09:27;101993.25;;;19.19;100.00
71638;BME280;59485;43.542;-5.676;2023-06-22T07:11:53;101997.94;;;19.25;100.00
71638;BME280;59485;43.542;-5.676;2023-06-22T07:14:18;101977.84;;;19.23;100.00
71638;BME280;59485;43.542;-5.676;2023-06-22T07:16:44;102000.69;;;19.38;100.00
71638;BME280;59485;43.542;-5.676;2023-06-22T07:19:11;102007.50;;;19.42;100.00
71638;BME280;59485;43.542;-5.676;2023-06-22T07:21:38;102005.84;;;19.41;100.00
71638;BME280;59485;43.542;-5.676;2023-06-22T07:24:05;102001.13;;;19.41;100.00
71638;BME280;59485;43.542;-5.676;2023-06-22T07:26:31;101986.38;;;19.47;100.00
71638;BME280;59485;43.542;-5.676;2023-06-22T07:28:57;101980.13;;;19.45;100.00
71638;BME280;59485;43.542;-5.676;2023-06-22T07:31:24;102007.03;;;19.65;100.00
71638;BME280;59485;43.542;-5.676;2023-06-22T07:33:50;101950.81;;;19.43;100.00
71638;BME280;59485;43.542;-5.676;2023-06-22T07:36:16;102001.66;;;19.76;100.00
71638;BME280;59485;43.542;-5.676;2023-06-22T07:38:42;101995.03;;;19.71;100.00
71638;BME280;59485;43.542;-5.676;2023-06-22T07:41:08;101978.75;;;19.74;100.00
71638;BME280;59485;43.542;-5.676;2023-06-22T07:43:33;101991.88;;;19.99;100.00
71638;BME280;59485;43.542;-5.676;2023-06-22T07:46:05;101991.44;;;20.02;100.00
71638;BME280;59485;43.542;-5.676;2023-06-22T07:48:31;101975.88;;;19.94;100.00
71638;BME280;59485;43.542;-5.676;2023-06-22T07:50:57;101994.34;;;20.20;100.00
71638;BME280;59485;43.542;-5.676;2023-06-22T07:53:22;101995.81;;;20.22;100.00
71638;BME280;59485;43.542;-5.676;2023-06-22T07:55:49;101979.63;;;20.13;100.00
71638;BME280;59485;43.542;-5.676;2023-06-22T07:58:14;101978.75;;;20.12;100.00
71638;BME280;59485;43.542;-5.676;2023-06-22T08:00:41;102000.03;;;20.32;100.00
71638;BME280;59485;43.542;-5.676;2023-06-22T08:03:06;101998.47;;;20.49;100.00
71638;BME280;59485;43.542;-5.676;2023-06-22T08:05:32;101977.41;;;20.53;100.00
71638;BME280;59485;43.542;-5.676;2023-06-22T08:07:58;101998.25;;;20.69;100.00
71638;BME280;59485;43.542;-5.676;2023-06-22T08:10:24;102002.88;;;20.56;100.00
71638;BME280;59485;43.542;-5.676;2023-06-22T08:12:49;101995.59;;;20.55;100.00
71638;BME280;59485;43.542;-5.676;2023-06-22T08:15:17;102007.59;;;20.56;100.00
71638;BME280;59485;43.542;-5.676;2023-06-22T08:17:44;102000.63;;;20.72;100.00
71638;BME280;59485;43.542;-5.676;2023-06-22T08:20:10;101999.91;;;20.76;100.00
71638;BME280;59485;43.542;-5.676;2023-06-22T08:22:40;102007.31;;;20.89;100.00
71638;BME280;59485;43.542;-5.676;2023-06-22T08:25:06;102002.44;;;21.03;100.00
71638;BME280;59485;43.542;-5.676;2023-06-22T08:27:32;101996.72;;;20.97;100.00
71638;BME280;59485;43.542;-5.676;2023-06-22T08:30:01;102005.56;;;21.13;100.00
71638;BME280;59485;43.542;-5.676;2023-06-22T08:32:30;102002.56;;;21.14;100.00
71638;BME280;59485;43.542;-5.676;2023-06-22T08:34:56;102008.72;;;21.23;100.00
71638;BME280;59485;43.542;-5.676;2023-06-22T08:37:25;101983.00;;;21.21;100.00
71638;BME280;59485;43.542;-5.676;2023-06-22T08:39:56;102011.22;;;21.49;100.00
71638;BME280;59485;43.542;-5.676;2023-06-22T08:42:22;101997.66;;;21.53;100.00
71638;BME280;59485;43.542;-5.676;2023-06-22T08:44:50;102018.03;;;21.53;100.00
71638;BME280;59485;43.542;-5.676;2023-06-22T08:47:15;102019.66;;;21.61;100.00
71638;BME280;59485;43.542;-5.676;2023-06-22T08:49:41;102014.16;;;21.54;100.00
71638;BME280;59485;43.542;-5.676;2023-06-22T08:52:07;101995.19;;;21.45;100.00
71638;BME280;59485;43.542;-5.676;2023-06-22T08:54:33;102017.28;;;21.46;100.00
71638;BME280;59485;43.542;-5.676;2023-06-22T08:57:00;102025.78;;;21.51;100.00
71638;BME280;59485;43.542;-5.676;2023-06-22T08:59:26;101975.03;;;21.24;100.00
71638;BME280;59485;43.542;-5.676;2023-06-22T09:01:51;102018.13;;;21.47;100.00
71638;BME280;59485;43.542;-5.676;2023-06-22T09:04:19;102013.44;;;21.22;100.00
71638;BME280;59485;43.542;-5.676;2023-06-22T09:06:47;102016.72;;;21.13;100.00
71638;BME280;59485;43.542;-5.676;2023-06-22T09:09:13;102013.03;;;20.94;100.00
71638;BME280;59485;43.542;-5.676;2023-06-22T09:11:40;102033.19;;;20.96;100.00
71638;BME280;59485;43.542;-5.676;2023-06-22T09:14:05;102014.09;;;20.75;100.00
71638;BME280;59485;43.542;-5.676;2023-06-22T09:16:31;102030.75;;;20.81;100.00
71638;BME280;59485;43.542;-5.676;2023-06-22T09:18:57;102046.13;;;20.90;100.00
71638;BME280;59485;43.542;-5.676;2023-06-22T09:21:23;102050.78;;;20.72;100.00
71638;BME280;59485;43.542;-5.676;2023-06-22T09:23:49;102047.28;;;20.51;100.00
71638;BME280;59485;43.542;-5.676;2023-06-22T09:26:19;102056.81;;;20.31;100.00
71638;BME280;59485;43.542;-5.676;2023-06-22T09:28:45;102046.16;;;20.21;100.00
71638;BME280;59485;43.542;-5.676;2023-06-22T09:31:11;102061.97;;;20.27;100.00
71638;BME280;59485;43.542;-5.676;2023-06-22T09:33:37;102055.97;;;20.30;100.00
71638;BME280;59485;43.542;-5.676;2023-06-22T09:36:06;102049.13;;;20.26;100.00
71638;BME280;59485;43.542;-5.676;2023-06-22T09:38:36;102024.81;;;20.08;100.00
71638;BME280;59485;43.542;-5.676;2023-06-22T09:41:01;102075.72;;;20.22;100.00
71638;BME280;59485;43.542;-5.676;2023-06-22T09:43:27;102062.50;;;20.11;100.00
71638;BME280;59485;43.542;-5.676;2023-06-22T09:45:53;102076.44;;;20.11;100.00
71638;BME280;59485;43.542;-5.676;2023-06-22T09:48:18;102089.97;;;20.01;100.00
71638;BME280;59485;43.542;-5.676;2023-06-22T09:50:44;102097.66;;;19.99;100.00
71638;BME280;59485;43.542;-5.676;2023-06-22T09:53:09;102063.44;;;19.92;100.00
71638;BME280;59485;43.542;-5.676;2023-06-22T09:55:35;102082.63;;;20.06;100.00
71638;BME280;59485;43.542;-5.676;2023-06-22T09:58:00;102095.06;;;20.10;100.00
71638;BME280;59485;43.542;-5.676;2023-06-22T10:00:26;102090.13;;;20.06;100.00
71638;BME280;59485;43.542;-5.676;2023-06-22T10:02:52;102111.53;;;20.12;100.00
71638;BME280;59485;43.542;-5.676;2023-06-22T10:05:17;102091.72;;;19.89;100.00
71638;BME280;59485;43.542;-5.676;2023-06-22T10:07:43;102115.66;;;19.96;100.00
71638;BME280;59485;43.542;-5.676;2023-06-22T10:10:13;102104.53;;;19.96;100.00
71638;BME280;59485;43.542;-5.676;2023-06-22T10:12:57;102107.94;;;19.98;100.00
71638;BME280;59485;43.542;-5.676;2023-06-22T10:15:23;102135.53;;;20.06;100.00
71638;BME280;59485;43.542;-5.676;2023-06-22T10:17:49;102116.25;;;20.11;100.00
71638;BME280;59485;43.542;-5.676;2023-06-22T10:20:15;102121.16;;;20.16;100.00
71638;BME280;59485;43.542;-5.676;2023-06-22T10:22:44;102139.97;;;20.27;100.00
71638;BME280;59485;43.542;-5.676;2023-06-22T10:25:11;102125.44;;;20.18;100.00
71638;BME280;59485;43.542;-5.676;2023-06-22T10:27:37;102143.59;;;20.28;100.00
71638;BME280;59485;43.542;-5.676;2023-06-22T10:30:07;102091.19;;;20.11;100.00
71638;BME280;59485;43.542;-5.676;2023-06-22T10:32:33;102115.53;;;20.22;100.00
71638;BME280;59485;43.542;-5.676;2023-06-22T10:34:58;102125.34;;;20.32;100.00
71638;BME280;59485;43.542;-5.676;2023-06-22T10:37:24;102136.06;;;20.41;100.00
71638;BME280;59485;43.542;-5.676;2023-06-22T10:39:50;102120.63;;;20.32;100.00
71638;BME280;59485;43.542;-5.676;2023-06-22T10:42:15;102131.78;;;20.32;100.00
71638;BME280;59485;43.542;-5.676;2023-06-22T10:44:41;102144.19;;;20.43;100.00
71638;BME280;59485;43.542;-5.676;2023-06-22T10:47:08;102129.00;;;20.39;100.00
71638;BME280;59485;43.542;-5.676;2023-06-22T10:49:34;102100.53;;;20.23;100.00
71638;BME280;59485;43.542;-5.676;2023-06-22T10:52:02;102130.94;;;20.38;100.00
71638;BME280;59485;43.542;-5.676;2023-06-22T10:54:28;102107.19;;;20.29;100.00
71638;BME280;59485;43.542;-5.676;2023-06-22T10:56:54;102145.81;;;20.64;100.00
71638;BME280;59485;43.542;-5.676;2023-06-22T10:59:19;102099.22;;;20.39;100.00
71638;BME280;59485;43.542;-5.676;2023-06-22T11:01:46;102119.72;;;20.51;100.00
71638;BME280;59485;43.542;-5.676;2023-06-22T11:04:12;102127.63;;;20.54;100.00
71638;BME280;59485;43.542;-5.676;2023-06-22T11:06:37;102152.22;;;20.64;100.00
71638;BME280;59485;43.542;-5.676;2023-06-22T11:09:03;102153.75;;;20.60;100.00
71638;BME280;59485;43.542;-5.676;2023-06-22T11:11:29;102117.44;;;20.35;100.00
71638;BME280;59485;43.542;-5.676;2023-06-22T11:13:55;102158.16;;;20.74;100.00
71638;BME280;59485;43.542;-5.676;2023-06-22T11:16:20;102154.78;;;20.66;100.00
71638;BME280;59485;43.542;-5.676;2023-06-22T11:18:46;102159.41;;;20.78;100.00
71638;BME280;59485;43.542;-5.676;2023-06-22T11:21:11;102153.22;;;20.76;100.00
71638;BME280;59485;43.542;-5.676;2023-06-22T11:23:36;102134.97;;;20.49;100.00
71638;BME280;59485;43.542;-5.676;2023-06-22T11:26:02;102174.06;;;20.67;100.00
71638;BME280;59485;43.542;-5.676;2023-06-22T11:28:28;102142.47;;;20.48;100.00
71638;BME280;59485;43.542;-5.676;2023-06-22T11:30:53;102164.00;;;20.66;100.00
71638;BME280;59485;43.542;-5.676;2023-06-22T11:33:19;102144.94;;;20.63;100.00
71638;BME280;59485;43.542;-5.676;2023-06-22T11:35:44;102160.75;;;20.76;100.00
71638;BME280;59485;43.542;-5.676;2023-06-22T11:38:09;102135.72;;;20.63;100.00
71638;BME280;59485;43.542;-5.676;2023-06-22T11:40:35;102174.56;;;20.89;100.00
71638;BME280;59485;43.542;-5.676;2023-06-22T11:43:01;102139.31;;;20.70;100.00
71638;BME280;59485;43.542;-5.676;2023-06-22T11:45:26;102167.00;;;20.96;100.00
71638;BME280;59485;43.542;-5.676;2023-06-22T11:47:52;102177.44;;;21.07;100.00
71638;BME280;59485;43.542;-5.676;2023-06-22T11:50:17;102182.63;;;21.04;100.00
71638;BME280;59485;43.542;-5.676;2023-06-22T11:52:55;102155.88;;;20.96;100.00
71638;BME280;59485;43.542;-5.676;2023-06-22T11:55:21;102150.06;;;20.97;100.00
71638;BME280;59485;43.542;-5.676;2023-06-22T11:57:54;102144.50;;;20.97;100.00
71638;BME280;59485;43.542;-5.676;2023-06-22T12:00:29;102177.63;;;21.12;100.00
71638;BME280;59485;43.542;-5.676;2023-06-22T12:02:55;102179.91;;;21.28;100.00
71638;BME280;59485;43.542;-5.676;2023-06-22T12:05:21;102185.22;;;21.30;100.00
71638;BME280;59485;43.542;-5.676;2023-06-22T12:07:48;102171.28;;;21.30;100.00
71638;BME280;59485;43.542;-5.676;2023-06-22T12:10:13;102158.88;;;21.26;100.00
71638;BME280;59485;43.542;-5.676;2023-06-22T12:12:39;102177.19;;;21.47;100.00
71638;BME280;59485;43.542;-5.676;2023-06-22T12:15:09;102171.25;;;21.37;100.00
71638;BME280;59485;43.542;-5.676;2023-06-22T12:17:35;102170.34;;;21.43;100.00
71638;BME280;59485;43.542;-5.676;2023-06-22T12:20:00;102180.34;;;21.50;100.00
71638;BME280;59485;43.542;-5.676;2023-06-22T12:22:27;102174.59;;;21.45;100.00
71638;BME280;59485;43.542;-5.676;2023-06-22T12:24:52;102178.28;;;21.39;100.00
71638;BME280;59485;43.542;-5.676;2023-06-22T12:27:18;102178.06;;;21.41;100.00
71638;BME280;59485;43.542;-5.676;2023-06-22T12:29:47;102181.28;;;21.44;100.00
71638;BME280;59485;43.542;-5.676;2023-06-22T12:32:13;102178.84;;;21.48;100.00
71638;BME280;59485;43.542;-5.676;2023-06-22T12:34:39;102184.97;;;21.63;100.00
71638;BME280;59485;43.542;-5.676;2023-06-22T12:37:05;102188.03;;;21.55;100.00